Time;durP1;ratioP1;P1;durP2;ratioP2;P2;SDS_P1;SDS_P2;PMS_P1;PMS_P2;Temp;Humidity;BMP_temperature;BMP_pressure;BME280_temperature;BME280_humidity;BME280_pressure;Samples;Min_cycle;Max_cycle;Signal;HPM_P1;HPM_P2
2022/11/03 00:01:12;;;;;;;14.48;2.97;;;11.40;99.90;;;;;;5031035;28;20041;-77
2022/11/03 00:03:37;;;;;;;14.20;3.08;;;11.40;99.90;;;;;;5022686;28;20490;-77
2022/11/03 00:06:03;;;;;;;15.77;3.03;;;11.40;99.90;;;;;;5030677;28;20090;-76
2022/11/03 00:08:33;;;;;;;13.48;2.78;;;11.40;99.90;;;;;;5026837;28;20499;-77
2022/11/03 00:11:17;;;;;;;13.05;2.80;;;11.40;99.90;;;;;;5033353;28;20513;-77
2022/11/03 00:13:43;;;;;;;14.95;2.70;;;11.40;99.90;;;;;;5024191;28;20087;-77
2022/11/03 00:16:10;;;;;;;13.35;2.97;;;11.40;99.90;;;;;;5014605;28;20045;-77
2022/11/03 00:18:36;;;;;;;13.50;3.13;;;11.40;99.90;;;;;;5022991;28;20161;-77
2022/11/03 00:21:04;;;;;;;13.80;3.15;;;11.40;99.90;;;;;;5028304;28;20041;-77
2022/11/03 00:23:33;;;;;;;9.93;2.55;;;11.40;99.90;;;;;;5032686;28;20029;-76
2022/11/03 00:26:05;;;;;;;14.25;3.10;;;11.40;99.90;;;;;;5030054;28;20044;-77
2022/11/03 00:28:32;;;;;;;10.35;2.92;;;11.40;99.90;;;;;;5014825;28;20520;-77
2022/11/03 00:31:00;;;;;;;10.98;2.90;;;11.40;99.90;;;;;;5029369;28;20037;-77
2022/11/03 00:33:33;;;;;;;10.38;2.30;;;11.30;99.90;;;;;;5031189;28;20045;-77
2022/11/03 00:36:00;;;;;;;14.50;2.65;;;11.30;99.90;;;;;;5025030;28;20037;-77
2022/11/03 00:38:27;;;;;;;11.90;2.60;;;11.30;99.90;;;;;;5045977;28;20042;-76
2022/11/03 00:40:58;;;;;;;11.30;2.75;;;11.30;99.90;;;;;;5031601;28;20038;-76
2022/11/03 00:43:25;;;;;;;10.48;2.40;;;11.20;99.90;;;;;;5027579;28;20038;-77
2022/11/03 00:45:51;;;;;;;15.18;2.72;;;11.30;99.90;;;;;;5024948;28;20036;-77
2022/11/03 00:48:29;;;;;;;14.30;3.05;;;11.20;99.90;;;;;;5021620;28;20042;-77
2022/11/03 00:51:03;;;;;;;14.70;2.75;;;11.30;99.90;;;;;;5031595;28;20538;-77
2022/11/03 00:53:31;;;;;;;11.93;2.97;;;11.20;99.90;;;;;;5023996;28;20401;-77
2022/11/03 00:55:56;;;;;;;12.40;2.67;;;11.20;99.90;;;;;;5025834;28;20052;-77
2022/11/03 00:58:22;;;;;;;10.48;2.92;;;11.20;99.90;;;;;;5023236;28;20041;-76
2022/11/03 01:00:48;;;;;;;12.35;2.80;;;11.20;99.90;;;;;;5020015;28;20049;-77
2022/11/03 01:03:13;;;;;;;12.98;3.08;;;11.20;99.90;;;;;;5030330;28;20041;-77
2022/11/03 01:08:35;;;;;;;13.60;2.83;;;11.10;99.90;;;;;;5071985;22;20044;-75
2022/11/03 01:13:55;;;;;;;13.43;2.83;;;11.10;99.90;;;;;;5047706;28;20131;-75
2022/11/03 01:16:21;;;;;;;18.98;3.35;;;11.10;99.90;;;;;;5049173;28;20545;-75
2022/11/03 01:18:47;;;;;;;15.10;3.42;;;11.10;99.90;;;;;;5041910;28;20082;-75
2022/11/03 01:21:12;;;;;;;11.32;2.30;;;11.10;99.90;;;;;;5041463;28;20041;-75
2022/11/03 01:23:38;;;;;;;11.70;3.33;;;11.10;99.90;;;;;;5043027;28;20045;-75
2022/11/03 01:26:08;;;;;;;13.57;3.05;;;11.10;99.90;;;;;;5044063;28;20091;-75
2022/11/03 01:28:38;;;;;;;12.55;3.38;;;11.10;99.90;;;;;;5048076;28;20049;-75
2022/11/03 01:31:05;;;;;;;17.42;2.90;;;11.10;99.90;;;;;;5044974;28;20045;-75
2022/11/03 01:33:31;;;;;;;12.82;2.85;;;11.10;99.90;;;;;;5049471;28;20484;-75
2022/11/03 01:35:57;;;;;;;17.27;3.10;;;11.10;99.90;;;;;;5050328;28;20040;-75
2022/11/03 01:38:23;;;;;;;15.32;2.88;;;11.10;99.90;;;;;;5050283;28;20051;-75
2022/11/03 01:40:48;;;;;;;11.55;3.33;;;11.10;99.90;;;;;;5051350;28;20056;-75
2022/11/03 01:43:22;;;;;;;19.90;3.83;;;11.10;99.90;;;;;;5052525;28;20045;-75
2022/11/03 01:46:14;;;;;;;11.77;3.10;;;11.10;99.90;;;;;;5049391;28;20102;-75
2022/11/03 01:48:45;;;;;;;9.63;2.80;;;11.10;99.90;;;;;;5046067;28;20392;-75
2022/11/03 01:51:14;;;;;;;14.23;2.58;;;11.00;99.90;;;;;;5045216;28;20041;-75
2022/11/03 01:53:43;;;;;;;13.23;3.03;;;11.00;99.90;;;;;;5047045;28;20047;-75
2022/11/03 01:56:11;;;;;;;10.55;2.97;;;11.10;99.90;;;;;;5033731;28;20049;-75
2022/11/03 01:58:40;;;;;;;10.90;2.80;;;10.90;99.90;;;;;;5051576;28;20102;-75
2022/11/03 02:01:06;;;;;;;15.30;2.80;;;11.00;99.90;;;;;;5047455;28;20407;-75
2022/11/03 02:03:36;;;;;;;14.00;2.92;;;11.00;99.90;;;;;;5049374;28;20037;-75
2022/11/03 02:06:04;;;;;;;16.10;3.17;;;11.00;99.90;;;;;;5038121;28;20489;-75
2022/11/03 02:08:55;;;;;;;14.63;2.67;;;11.00;99.90;;;;;;5051415;28;20496;-75
2022/11/03 02:14:12;;;;;;;14.15;3.28;;;11.00;99.90;;;;;;5044450;28;20045;-75
2022/11/03 02:16:41;;;;;;;12.48;2.58;;;11.00;99.90;;;;;;5045326;28;20055;-75
2022/11/03 02:19:19;;;;;;;12.80;2.47;;;10.90;99.90;;;;;;5047978;28;20046;-75
2022/11/03 02:22:12;;;;;;;9.50;2.60;;;11.00;99.90;;;;;;5048679;28;20037;-76
2022/11/03 02:25:28;;;;;;;16.35;2.75;;;10.90;99.90;;;;;;5042753;28;20049;-75
2022/11/03 02:27:54;;;;;;;16.35;3.05;;;10.90;99.90;;;;;;5015833;28;20099;-75
2022/11/03 02:30:19;;;;;;;13.07;3.35;;;10.90;99.90;;;;;;5049734;28;20033;-75
2022/11/03 02:32:45;;;;;;;9.48;3.00;;;10.90;99.90;;;;;;5046935;28;20076;-76
2022/11/03 02:35:19;;;;;;;10.43;2.67;;;11.00;99.90;;;;;;5065866;28;20095;-76
2022/11/03 02:37:49;;;;;;;12.88;3.28;;;11.00;99.90;;;;;;5041821;28;20458;-75
2022/11/03 02:40:20;;;;;;;12.93;2.78;;;11.00;99.90;;;;;;5050549;28;20548;-75
2022/11/03 02:42:49;;;;;;;10.07;2.80;;;11.00;99.90;;;;;;5050235;28;20077;-75
2022/11/03 02:45:20;;;;;;;15.77;2.90;;;11.00;99.90;;;;;;5048589;28;20516;-75
2022/11/03 02:47:47;;;;;;;12.40;2.75;;;11.00;99.90;;;;;;5045937;28;20036;-76
2022/11/03 02:50:13;;;;;;;13.77;3.22;;;11.00;99.90;;;;;;5048865;28;20128;-75
2022/11/03 02:52:40;;;;;;;14.68;3.55;;;11.00;99.90;;;;;;5048092;28;20452;-75
2022/11/03 02:55:24;;;;;;;15.43;3.92;;;11.10;99.90;;;;;;5048268;28;20051;-75
2022/11/03 02:57:59;;;;;;;9.95;2.92;;;11.00;99.90;;;;;;5063270;28;20059;-75
2022/11/03 03:00:26;;;;;;;11.93;2.95;;;10.90;99.90;;;;;;5049852;28;20071;-75
2022/11/03 03:03:01;;;;;;;13.32;2.92;;;10.90;99.90;;;;;;5046093;28;20046;-75
2022/11/03 03:05:30;;;;;;;14.20;2.60;;;11.00;99.90;;;;;;5064095;28;20072;-75
2022/11/03 03:08:00;;;;;;;10.82;2.97;;;11.00;99.90;;;;;;5042961;28;20092;-75
2022/11/03 03:10:32;;;;;;;12.98;3.10;;;11.00;99.90;;;;;;5048827;28;20037;-75
2022/11/03 03:13:00;;;;;;;17.13;2.75;;;11.00;99.90;;;;;;5046433;28;20112;-76
2022/11/03 03:15:44;;;;;;;11.43;2.70;;;11.00;99.90;;;;;;5067151;28;20041;-75
2022/11/03 03:18:20;;;;;;;14.23;3.00;;;11.00;99.90;;;;;;5049250;28;20405;-75
2022/11/03 03:21:13;;;;;;;10.38;2.60;;;11.00;99.90;;;;;;5044534;28;20040;-75
2022/11/03 03:23:48;;;;;;;9.63;2.63;;;11.00;99.90;;;;;;5047635;28;20053;-75
2022/11/03 03:26:23;;;;;;;16.00;3.30;;;11.00;99.90;;;;;;5045793;28;20033;-76
2022/11/03 03:28:57;;;;;;;14.63;3.50;;;11.00;99.90;;;;;;5050007;28;20435;-75
2022/11/03 03:31:24;;;;;;;19.02;3.15;;;11.00;99.90;;;;;;5045488;28;20362;-75
2022/11/03 03:33:53;;;;;;;9.70;2.88;;;11.00;99.90;;;;;;5048693;28;20548;-75
2022/11/03 03:36:20;;;;;;;15.95;3.42;;;11.00;99.90;;;;;;5043987;28;20037;-75
2022/11/03 03:38:52;;;;;;;11.15;2.90;;;11.00;99.90;;;;;;5049244;28;20045;-75
2022/11/03 03:41:21;;;;;;;14.57;3.15;;;11.00;99.90;;;;;;5046225;28;20041;-75
2022/11/03 03:43:53;;;;;;;11.60;2.78;;;11.00;99.90;;;;;;5037493;28;20041;-75
2022/11/03 03:46:22;;;;;;;14.20;2.75;;;11.00;99.90;;;;;;5042829;28;20032;-75
2022/11/03 03:48:47;;;;;;;11.48;3.00;;;11.00;99.90;;;;;;5049981;28;20094;-75
2022/11/03 03:51:15;;;;;;;11.20;2.80;;;11.00;99.90;;;;;;5028582;28;20041;-75
2022/11/03 03:53:41;;;;;;;10.98;3.13;;;11.00;99.90;;;;;;5050329;28;20041;-75
2022/11/03 03:56:07;;;;;;;11.20;2.88;;;11.00;99.90;;;;;;5039217;28;20122;-75
2022/11/03 03:58:32;;;;;;;13.70;2.55;;;11.00;99.90;;;;;;5043985;28;20551;-75
2022/11/03 04:00:58;;;;;;;12.93;2.65;;;11.00;99.90;;;;;;5048680;28;20473;-75
2022/11/03 04:03:24;;;;;;;13.48;3.20;;;11.00;99.90;;;;;;5048943;28;20068;-75
2022/11/03 04:05:52;;;;;;;11.63;3.13;;;11.00;99.90;;;;;;5027252;28;20492;-75
2022/11/03 04:08:18;;;;;;;15.65;3.10;;;11.00;99.90;;;;;;5048762;28;20048;-75
2022/11/03 04:22:15;;;;;;;13.23;3.08;;;11.00;99.90;;;;;;5051144;28;20500;-75
2022/11/03 04:24:27;;;;;;;9.15;2.70;;;11.00;99.90;;;;;;5045507;28;20047;-75
2022/11/03 04:26:59;;;;;;;12.07;2.58;;;11.00;99.90;;;;;;5037927;28;20041;-75
2022/11/03 04:29:25;;;;;;;13.35;2.70;;;11.00;99.90;;;;;;5041659;28;20033;-75
2022/11/03 04:31:50;;;;;;;12.93;3.10;;;11.00;99.90;;;;;;5049698;28;20043;-75
2022/11/03 04:34:16;;;;;;;12.02;2.80;;;11.00;99.90;;;;;;5040542;28;20053;-74
2022/11/03 04:36:41;;;;;;;12.40;2.47;;;10.90;99.90;;;;;;5043992;28;20119;-74
2022/11/03 04:39:18;;;;;;;13.05;2.53;;;11.00;99.90;;;;;;5039605;28;20045;-75
2022/11/03 04:41:45;;;;;;;11.38;3.10;;;11.00;99.90;;;;;;5045154;28;20036;-74
2022/11/03 04:44:15;;;;;;;13.05;3.25;;;11.00;99.90;;;;;;5048076;28;20037;-76
2022/11/03 04:46:41;;;;;;;13.70;3.33;;;11.00;99.90;;;;;;5049182;28;20072;-77
2022/11/03 04:49:11;;;;;;;11.38;2.88;;;11.10;99.90;;;;;;5025609;28;20033;-77
2022/11/03 04:51:36;;;;;;;12.65;2.33;;;11.10;99.90;;;;;;5046246;28;20033;-77
2022/11/03 04:54:18;;;;;;;11.13;2.88;;;11.20;99.90;;;;;;5049741;28;20041;-77
2022/11/03 04:56:43;;;;;;;15.90;2.70;;;11.10;99.90;;;;;;5050390;28;20072;-76
2022/11/03 04:59:14;;;;;;;11.70;2.70;;;11.20;99.90;;;;;;5043929;28;20068;-76
2022/11/03 05:01:40;;;;;;;11.63;2.28;;;11.20;99.90;;;;;;5049356;28;20041;-76
2022/11/03 05:04:15;;;;;;;10.15;3.10;;;11.20;99.90;;;;;;5049037;28;20099;-77
2022/11/03 05:06:46;;;;;;;15.35;3.47;;;11.20;99.90;;;;;;5043561;28;20051;-76
2022/11/03 05:09:15;;;;;;;10.95;2.90;;;11.20;99.90;;;;;;5030853;28;20077;-75
2022/11/03 05:11:44;;;;;;;12.43;2.70;;;11.20;99.90;;;;;;5041101;28;20068;-75
2022/11/03 05:14:14;;;;;;;13.82;3.08;;;11.20;99.90;;;;;;5045304;28;20033;-74
2022/11/03 05:16:40;;;;;;;13.15;2.90;;;11.80;99.90;;;;;;5042341;28;20033;-74
2022/11/03 05:19:19;;;;;;;10.73;2.50;;;11.30;99.90;;;;;;5045639;28;20396;-75
2022/11/03 05:21:48;;;;;;;12.07;2.90;;;11.20;99.90;;;;;;5045872;28;20589;-75
2022/11/03 05:24:15;;;;;;;13.75;3.00;;;11.20;99.90;;;;;;5042469;28;20073;-74
2022/11/03 05:26:42;;;;;;;13.00;2.58;;;11.20;99.90;;;;;;5045578;28;20536;-75
2022/11/03 05:29:30;;;;;;;10.48;3.25;;;11.20;99.90;;;;;;5047115;28;20098;-78
2022/11/03 05:31:56;;;;;;;10.98;2.83;;;11.30;99.90;;;;;;5051035;28;20090;-78
2022/11/03 05:34:30;;;;;;;15.07;3.10;;;11.20;99.90;;;;;;5043715;28;20033;-77
2022/11/03 05:37:05;;;;;;;10.50;2.72;;;11.20;99.90;;;;;;5063931;28;20045;-79
2022/11/03 05:39:38;;;;;;;12.80;2.45;;;11.20;99.90;;;;;;5043086;28;20044;-78
2022/11/03 05:42:31;;;;;;;9.85;2.60;;;11.20;99.90;;;;;;5058169;28;20496;-79
2022/11/03 05:44:58;;;;;;;10.73;2.78;;;11.20;99.90;;;;;;5056529;28;20037;-79
2022/11/03 05:47:31;;;;;;;12.38;2.92;;;11.20;99.90;;;;;;5039501;28;20041;-79
2022/11/03 05:50:24;;;;;;;13.18;2.63;;;11.20;99.90;;;;;;5042302;28;20128;-80
2022/11/03 05:53:15;;;;;;;13.18;2.67;;;11.20;99.90;;;;;;5042894;28;20124;-80
2022/11/03 05:55:42;;;;;;;14.63;2.60;;;11.20;99.90;;;;;;5065625;28;20560;-79
2022/11/03 05:58:25;;;;;;;10.82;2.92;;;11.20;99.90;;;;;;5052212;28;20071;-78
2022/11/03 06:00:51;;;;;;;12.52;2.65;;;11.20;99.90;;;;;;5047523;28;20136;-79
2022/11/03 06:03:23;;;;;;;13.18;3.17;;;11.70;99.90;;;;;;5050863;28;20144;-80
2022/11/03 06:05:50;;;;;;;8.88;2.47;;;11.20;99.90;;;;;;5045368;28;20038;-78
2022/11/03 06:08:34;;;;;;;13.20;3.35;;;11.10;99.90;;;;;;5049474;28;20561;-80
2022/11/03 06:11:02;;;;;;;10.20;2.50;;;11.20;99.90;;;;;;5043752;28;20485;-78
2022/11/03 06:13:34;;;;;;;14.30;2.78;;;11.10;99.90;;;;;;5047926;28;20478;-79
2022/11/03 06:16:31;;;;;;;17.73;2.85;;;11.20;99.90;;;;;;5040583;28;20091;-79
2022/11/03 06:18:58;;;;;;;11.88;2.25;;;11.10;99.90;;;;;;5048047;28;20064;-79
2022/11/03 06:21:25;;;;;;;10.63;2.63;;;11.10;99.90;;;;;;5045968;28;20494;-78
2022/11/03 06:23:53;;;;;;;9.23;2.50;;;11.20;99.90;;;;;;5059953;28;20041;-77
2022/11/03 06:26:23;;;;;;;10.77;2.65;;;11.10;99.90;;;;;;5050941;28;20039;-78
2022/11/03 06:28:49;;;;;;;6.85;2.15;;;11.20;99.90;;;;;;5053505;28;20278;-78
2022/11/03 06:31:28;;;;;;;10.73;3.08;;;11.20;99.90;;;;;;5037606;28;20045;-79
2022/11/03 06:33:56;;;;;;;11.32;2.70;;;11.10;99.90;;;;;;5051323;28;20048;-80
2022/11/03 06:36:34;;;;;;;13.98;2.83;;;11.10;99.90;;;;;;5049046;28;20511;-80
2022/11/03 06:39:03;;;;;;;14.70;3.05;;;11.20;99.90;;;;;;5052965;28;20459;-80
2022/11/03 06:41:35;;;;;;;10.93;2.80;;;11.20;99.90;;;;;;5049502;28;21037;-78
2022/11/03 06:44:02;;;;;;;11.80;2.85;;;11.20;99.90;;;;;;5041796;28;20045;-77
2022/11/03 06:46:29;;;;;;;11.90;2.97;;;11.20;99.90;;;;;;5038298;28;20046;-76
2022/11/03 06:48:59;;;;;;;9.52;2.70;;;11.20;99.90;;;;;;5044108;28;20059;-76
2022/11/03 06:51:29;;;;;;;12.82;3.00;;;11.20;99.90;;;;;;5045484;28;20104;-76
2022/11/03 06:53:58;;;;;;;18.40;3.00;;;11.10;99.90;;;;;;5057342;28;20072;-76
2022/11/03 06:56:27;;;;;;;10.15;2.67;;;11.20;99.90;;;;;;5050725;28;20044;-78
2022/11/03 06:58:54;;;;;;;11.02;2.65;;;11.20;99.90;;;;;;5042411;28;20091;-78
2022/11/03 07:01:28;;;;;;;14.23;3.00;;;11.20;99.90;;;;;;5034899;28;20064;-78
2022/11/03 07:04:00;;;;;;;11.27;2.85;;;11.20;99.90;;;;;;5041532;28;20049;-78
2022/11/03 07:06:30;;;;;;;15.45;3.03;;;11.30;99.90;;;;;;5038410;28;20493;-78
2022/11/03 07:08:58;;;;;;;12.60;2.88;;;11.30;99.90;;;;;;5050969;28;20049;-77
2022/11/03 07:11:29;;;;;;;14.07;3.22;;;11.40;99.90;;;;;;5048827;28;20037;-76
2022/11/03 07:14:09;;;;;;;13.52;2.80;;;11.40;99.90;;;;;;5044238;28;20052;-78
2022/11/03 07:16:40;;;;;;;11.30;3.20;;;11.40;99.90;;;;;;5034011;28;20045;-77
2022/11/03 07:19:30;;;;;;;14.63;3.40;;;11.30;99.90;;;;;;5047594;28;20041;-77
2022/11/03 07:22:05;;;;;;;13.18;2.95;;;11.40;99.90;;;;;;5036500;28;20056;-77
2022/11/03 07:24:34;;;;;;;12.80;2.40;;;11.40;99.90;;;;;;5040936;28;20041;-77
2022/11/03 07:27:18;;;;;;;13.25;3.25;;;11.40;99.90;;;;;;5048561;28;20045;-78
2022/11/03 07:29:44;;;;;;;12.18;3.08;;;11.40;99.90;;;;;;5044076;28;20413;-77
2022/11/03 07:32:17;;;;;;;9.70;2.83;;;11.50;99.90;;;;;;5049651;28;20037;-77
2022/11/03 07:34:43;;;;;;;13.30;3.47;;;11.50;99.90;;;;;;5033247;28;20079;-78
2022/11/03 07:37:16;;;;;;;11.27;3.05;;;11.50;99.90;;;;;;5047152;28;20060;-78
2022/11/03 07:39:42;;;;;;;12.00;2.95;;;11.50;99.90;;;;;;5049974;28;20055;-78
2022/11/03 07:42:18;;;;;;;7.13;2.75;;;11.50;99.90;;;;;;5038582;28;20049;-78
2022/11/03 07:44:44;;;;;;;10.38;2.67;;;11.50;99.90;;;;;;5041381;28;20044;-79
2022/11/03 07:47:18;;;;;;;12.43;3.05;;;11.60;99.90;;;;;;5049727;28;20045;-79
2022/11/03 07:49:44;;;;;;;12.02;2.45;;;11.60;99.90;;;;;;5044510;28;20041;-79
2022/11/03 07:52:14;;;;;;;12.63;3.20;;;11.60;99.90;;;;;;5043458;28;20025;-80
2022/11/03 07:54:39;;;;;;;16.92;3.20;;;11.60;99.90;;;;;;5039997;28;20048;-80
2022/11/03 07:57:14;;;;;;;18.55;3.10;;;11.60;99.90;;;;;;5044316;28;20049;-78
2022/11/03 07:59:41;;;;;;;11.48;3.20;;;11.70;99.90;;;;;;5053032;28;20106;-78
2022/11/03 08:02:29;;;;;;;13.38;2.83;;;11.70;99.90;;;;;;5040674;28;20055;-78
2022/11/03 08:04:55;;;;;;;13.90;3.20;;;11.70;99.90;;;;;;5046140;28;20044;-78
2022/11/03 08:07:21;;;;;;;11.02;3.17;;;11.70;99.90;;;;;;5048890;28;20041;-78
2022/11/03 08:09:46;;;;;;;9.57;2.90;;;11.80;99.90;;;;;;5049487;28;20047;-78
2022/11/03 08:12:12;;;;;;;11.00;2.58;;;11.80;99.90;;;;;;5044314;28;20048;-78
2022/11/03 08:14:38;;;;;;;12.63;3.28;;;11.80;99.90;;;;;;5045836;28;20052;-78
2022/11/03 08:17:03;;;;;;;10.65;3.05;;;11.90;99.90;;;;;;5042840;28;20665;-79
2022/11/03 08:19:29;;;;;;;16.98;3.70;;;11.90;99.90;;;;;;5040544;28;20036;-79
2022/11/03 08:21:55;;;;;;;9.93;3.10;;;11.90;99.90;;;;;;5044209;28;20546;-79
2022/11/03 08:24:21;;;;;;;11.73;2.60;;;12.00;99.90;;;;;;5039400;28;20454;-79
2022/11/03 08:26:47;;;;;;;10.77;2.85;;;12.00;99.90;;;;;;5049428;28;20053;-78
2022/11/03 08:29:13;;;;;;;13.02;2.78;;;12.10;99.90;;;;;;5045067;28;20515;-78
2022/11/03 08:31:39;;;;;;;15.82;3.30;;;12.20;99.90;;;;;;5035918;28;20128;-79
2022/11/03 08:34:04;;;;;;;10.88;3.00;;;12.20;99.90;;;;;;5059129;28;20098;-78
2022/11/03 08:36:30;;;;;;;11.45;2.92;;;12.20;99.90;;;;;;5032365;28;20216;-78
2022/11/03 08:38:55;;;;;;;9.88;2.90;;;12.30;99.90;;;;;;5040720;28;20116;-79
2022/11/03 08:41:21;;;;;;;12.55;3.30;;;12.30;99.90;;;;;;5062005;28;20045;-78
2022/11/03 08:43:47;;;;;;;9.25;2.75;;;12.30;99.90;;;;;;5038221;28;20045;-78
2022/11/03 08:46:12;;;;;;;11.70;2.95;;;12.40;99.90;;;;;;5038444;28;20488;-78
2022/11/03 08:48:38;;;;;;;14.68;3.17;;;12.40;99.90;;;;;;5048417;28;20045;-78
2022/11/03 08:51:03;;;;;;;8.15;2.97;;;12.40;99.90;;;;;;5040398;28;20048;-78
2022/11/03 08:53:29;;;;;;;10.63;2.95;;;12.50;99.90;;;;;;5042263;28;20040;-78
2022/11/03 08:55:55;;;;;;;15.38;3.15;;;12.50;99.90;;;;;;5040382;28;20033;-79
2022/11/03 08:58:21;;;;;;;10.73;3.25;;;12.50;99.90;;;;;;5055558;28;20037;-79
2022/11/03 09:00:48;;;;;;;17.48;3.40;;;12.60;99.90;;;;;;5039928;28;20444;-78
2022/11/03 09:03:14;;;;;;;12.38;3.03;;;12.60;99.90;;;;;;5038281;28;20481;-79
2022/11/03 09:05:40;;;;;;;11.75;3.28;;;12.60;99.90;;;;;;5045946;28;20055;-80
2022/11/03 09:08:06;;;;;;;9.60;2.65;;;12.60;99.90;;;;;;5042353;28;20052;-79
2022/11/03 09:10:32;;;;;;;11.98;2.95;;;12.80;99.90;;;;;;5046868;28;20033;-78
2022/11/03 09:12:57;;;;;;;8.93;3.15;;;12.80;99.90;;;;;;5048115;28;20034;-78
2022/11/03 09:15:23;;;;;;;12.88;2.80;;;12.80;99.90;;;;;;5048485;28;20048;-78
2022/11/03 09:17:49;;;;;;;14.88;3.80;;;12.90;99.90;;;;;;5046170;28;20440;-79
2022/11/03 09:20:15;;;;;;;10.02;3.40;;;12.90;99.90;;;;;;5050972;28;20088;-79
2022/11/03 09:22:40;;;;;;;11.82;2.63;;;13.00;99.90;;;;;;5052759;28;20040;-78
2022/11/03 09:25:06;;;;;;;10.43;2.83;;;13.00;99.90;;;;;;5052386;28;20116;-77
2022/11/03 09:27:32;;;;;;;16.52;3.55;;;13.10;99.90;;;;;;5042338;28;20201;-78
2022/11/03 09:29:58;;;;;;;13.82;3.17;;;13.10;99.90;;;;;;5047058;28;20033;-78
2022/11/03 09:32:23;;;;;;;10.93;2.88;;;13.20;99.90;;;;;;5041589;28;20417;-77
2022/11/03 09:34:49;;;;;;;11.02;2.95;;;13.30;99.90;;;;;;5050011;28;20564;-77
2022/11/03 09:37:15;;;;;;;10.75;2.90;;;13.30;99.90;;;;;;5052341;28;20033;-78
2022/11/03 09:39:41;;;;;;;12.30;2.88;;;13.30;99.90;;;;;;5051923;28;20053;-78
2022/11/03 09:42:08;;;;;;;13.55;3.05;;;13.40;99.90;;;;;;5051855;28;20063;-78
2022/11/03 09:44:35;;;;;;;10.57;3.15;;;13.40;99.90;;;;;;5044675;28;20049;-78
2022/11/03 09:47:03;;;;;;;12.88;3.00;;;13.40;99.90;;;;;;5048664;28;20048;-78
2022/11/03 09:49:31;;;;;;;14.90;3.22;;;13.50;99.90;;;;;;5043455;28;20516;-77
2022/11/03 09:51:59;;;;;;;10.25;2.95;;;13.50;99.90;;;;;;5048210;28;20048;-78
2022/11/03 09:54:26;;;;;;;12.88;3.15;;;13.50;99.90;;;;;;5051609;28;20507;-77
2022/11/03 09:56:52;;;;;;;12.68;3.15;;;13.60;99.90;;;;;;5051419;28;20072;-77
2022/11/03 09:59:20;;;;;;;12.60;3.10;;;13.60;99.90;;;;;;5037739;28;20133;-79
2022/11/03 10:01:48;;;;;;;13.98;3.28;;;13.70;99.90;;;;;;5040751;28;20066;-78
2022/11/03 10:04:17;;;;;;;9.10;2.53;;;13.80;99.90;;;;;;5052639;28;20048;-77
2022/11/03 10:06:43;;;;;;;11.75;3.20;;;13.80;99.90;;;;;;5050054;28;20421;-77
2022/11/03 10:09:16;;;;;;;13.55;3.17;;;13.90;99.90;;;;;;5050084;28;20050;-77
2022/11/03 10:11:43;;;;;;;8.55;2.58;;;14.00;99.90;;;;;;5046624;28;20412;-77
2022/11/03 10:14:12;;;;;;;9.07;2.95;;;14.10;99.90;;;;;;5051211;28;20059;-78
2022/11/03 10:16:40;;;;;;;11.48;3.50;;;14.10;99.90;;;;;;5059059;28;20772;-77
2022/11/03 10:19:10;;;;;;;11.10;3.28;;;14.10;99.90;;;;;;5053015;28;20045;-77
2022/11/03 10:21:37;;;;;;;9.77;2.88;;;14.10;99.90;;;;;;5044096;28;20040;-77
2022/11/03 10:24:04;;;;;;;10.25;3.20;;;14.10;99.90;;;;;;5051103;28;20052;-77
2022/11/03 10:26:45;;;;;;;10.55;3.35;;;14.10;99.90;;;;;;5051340;28;20781;-77
2022/11/03 10:29:23;;;;;;;11.75;2.88;;;14.10;99.90;;;;;;5057582;28;20032;-77
2022/11/03 10:31:57;;;;;;;12.70;3.00;;;14.20;99.90;;;;;;5054123;28;20044;-77
2022/11/03 10:34:38;;;;;;;7.80;2.65;;;14.20;99.90;;;;;;5044386;28;20044;-77
2022/11/03 10:37:24;;;;;;;10.55;2.58;;;14.20;99.90;;;;;;5040601;28;20048;-77
2022/11/03 10:39:52;;;;;;;10.05;2.72;;;14.20;99.90;;;;;;5052527;28;21210;-77
2022/11/03 10:42:37;;;;;;;9.80;2.58;;;14.20;99.90;;;;;;5045695;28;20072;-77
2022/11/03 10:45:13;;;;;;;13.43;2.83;;;14.20;99.90;;;;;;5047526;28;20110;-77
2022/11/03 10:47:38;;;;;;;11.63;2.70;;;14.20;99.90;;;;;;5049380;28;20615;-77
2022/11/03 10:50:30;;;;;;;8.38;2.95;;;14.30;99.90;;;;;;5046566;28;20045;-77
2022/11/03 10:52:56;;;;;;;13.93;2.97;;;14.30;99.90;;;;;;5044392;28;20045;-77
2022/11/03 10:55:24;;;;;;;11.40;2.90;;;14.40;99.90;;;;;;5038851;28;20037;-77
2022/11/03 10:57:51;;;;;;;8.10;2.42;;;14.40;99.90;;;;;;5048707;28;20086;-77
2022/11/03 11:00:18;;;;;;;9.10;3.03;;;14.50;99.90;;;;;;5045413;28;20124;-77
2022/11/03 11:02:46;;;;;;;8.60;2.60;;;14.50;99.90;;;;;;5064641;28;20041;-77
2022/11/03 11:05:18;;;;;;;11.32;2.92;;;14.60;99.90;;;;;;5049984;28;20501;-77
2022/11/03 11:07:44;;;;;;;8.27;3.00;;;14.60;99.90;;;;;;5050344;28;20083;-77
2022/11/03 11:10:22;;;;;;;9.55;2.65;;;14.60;99.90;;;;;;5048229;28;20408;-77
2022/11/03 11:13:11;;;;;;;9.38;2.40;;;14.60;99.90;;;;;;5038795;28;20120;-77
2022/11/03 11:15:44;;;;;;;9.07;2.42;;;14.60;99.90;;;;;;5046655;28;20057;-77
2022/11/03 11:18:28;;;;;;;7.10;2.20;;;14.70;99.90;;;;;;5031724;28;20073;-77
2022/11/03 11:21:09;;;;;;;8.18;2.13;;;14.70;99.90;;;;;;5062256;28;20402;-77
2022/11/03 11:23:34;;;;;;;7.35;2.17;;;14.70;99.90;;;;;;5061993;28;20045;-77
2022/11/03 11:26:09;;;;;;;8.48;2.20;;;14.70;99.90;;;;;;5050284;28;20063;-77
2022/11/03 11:28:39;;;;;;;8.55;2.67;;;14.70;99.90;;;;;;5047761;28;20040;-77
2022/11/03 11:31:28;;;;;;;8.85;2.50;;;14.70;99.90;;;;;;5049495;28;20041;-77
2022/11/03 11:34:11;;;;;;;9.70;2.33;;;14.70;99.90;;;;;;5048687;28;20129;-78
2022/11/03 11:36:41;;;;;;;8.88;2.38;;;14.70;99.90;;;;;;5047266;28;20481;-78
2022/11/03 11:39:21;;;;;;;7.85;2.30;;;14.70;99.90;;;;;;5044886;28;20120;-78
2022/11/03 11:42:12;;;;;;;7.40;1.85;;;14.70;99.90;;;;;;5031125;28;20557;-78
2022/11/03 11:44:53;;;;;;;9.00;2.22;;;14.70;99.90;;;;;;5050306;28;20041;-78
2022/11/03 11:47:43;;;;;;;6.18;2.10;;;14.60;99.90;;;;;;5045873;28;20063;-78
2022/11/03 11:50:09;;;;;;;12.70;2.83;;;14.60;99.90;;;;;;5042774;28;20094;-78
2022/11/03 11:52:43;;;;;;;7.80;2.53;;;14.60;99.90;;;;;;5046653;28;20131;-78
2022/11/03 11:55:29;;;;;;;5.40;2.40;;;14.60;99.90;;;;;;5031759;28;20041;-78
2022/11/03 11:57:55;;;;;;;5.97;2.13;;;14.60;99.90;;;;;;5064332;28;20074;-78
2022/11/03 12:00:26;;;;;;;10.02;2.65;;;14.60;99.90;;;;;;5049130;28;20489;-78
2022/11/03 12:02:52;;;;;;;7.68;2.20;;;14.60;99.90;;;;;;5051153;28;20045;-78
2022/11/03 12:05:27;;;;;;;6.97;2.22;;;14.60;99.90;;;;;;5042329;28;20044;-78
2022/11/03 12:07:54;;;;;;;8.40;2.85;;;14.60;99.90;;;;;;5043683;28;20543;-78
2022/11/03 12:10:24;;;;;;;11.80;2.42;;;14.60;99.90;;;;;;5047552;28;20043;-78
2022/11/03 12:12:51;;;;;;;9.30;2.83;;;14.60;99.90;;;;;;5042327;28;20402;-78
2022/11/03 12:15:54;;;;;;;9.15;2.47;;;14.60;99.90;;;;;;5064662;28;20048;-78
2022/11/03 12:18:29;;;;;;;7.78;2.30;;;14.60;99.90;;;;;;5057894;28;20037;-78
2022/11/03 12:20:54;;;;;;;10.15;2.15;;;14.70;99.90;;;;;;5046768;28;20041;-78
2022/11/03 12:23:42;;;;;;;9.07;2.55;;;14.70;99.90;;;;;;5047485;28;20063;-78
2022/11/03 12:26:17;;;;;;;7.18;2.05;;;14.70;99.90;;;;;;5047261;28;20143;-78
2022/11/03 12:28:43;;;;;;;10.48;2.50;;;14.90;99.90;;;;;;5049174;28;20053;-78
2022/11/03 12:31:09;;;;;;;7.30;2.20;;;14.90;99.90;;;;;;5030406;28;20044;-78
2022/11/03 12:33:35;;;;;;;8.55;2.95;;;15.00;99.90;;;;;;5040635;28;20033;-78
2022/11/03 12:36:01;;;;;;;7.80;2.47;;;15.00;99.90;;;;;;5045924;28;20033;-79
2022/11/03 12:38:26;;;;;;;9.32;2.50;;;15.10;99.90;;;;;;5044133;28;20548;-79
2022/11/03 12:40:55;;;;;;;8.38;2.42;;;15.10;99.90;;;;;;5041289;28;20068;-78
2022/11/03 12:43:20;;;;;;;11.20;2.88;;;15.20;99.90;;;;;;5048086;28;20076;-78
2022/11/03 12:45:46;;;;;;;6.80;2.63;;;15.20;99.90;;;;;;5029104;28;20080;-78
2022/11/03 12:48:12;;;;;;;7.40;2.50;;;15.30;99.90;;;;;;5047715;28;20041;-78
2022/11/03 12:50:38;;;;;;;9.25;2.20;;;15.30;99.90;;;;;;5041573;28;20042;-78
2022/11/03 12:53:05;;;;;;;13.00;2.70;;;15.30;99.90;;;;;;5041433;28;20123;-78
2022/11/03 12:55:32;;;;;;;9.52;2.83;;;15.30;99.90;;;;;;5049278;28;20045;-78
2022/11/03 12:57:58;;;;;;;11.45;2.72;;;15.30;99.90;;;;;;5040193;28;20072;-79
2022/11/03 13:00:24;;;;;;;7.57;2.63;;;15.20;99.90;;;;;;5034314;28;20080;-79
2022/11/03 13:02:50;;;;;;;10.43;2.80;;;15.20;99.90;;;;;;5039057;28;20489;-79
2022/11/03 13:05:15;;;;;;;10.20;2.83;;;15.20;99.90;;;;;;5018749;28;20044;-79
2022/11/03 13:07:44;;;;;;;11.00;3.20;;;15.20;99.90;;;;;;5038465;28;20079;-79
2022/11/03 13:10:10;;;;;;;7.75;2.65;;;15.20;99.90;;;;;;5028429;28;20078;-79
2022/11/03 13:15:05;;;;;;;6.60;2.28;;;15.20;99.90;;;;;;5025852;28;20045;-64
2022/11/03 13:17:32;;;;;;;9.27;2.40;;;15.20;99.90;;;;;;5027151;28;20398;-64